Time;durP1;ratioP1;P1;durP2;ratioP2;P2;SDS_P1;SDS_P2;PMS_P1;PMS_P2;Temp;Humidity;BMP_temperature;BMP_pressure;BME280_temperature;BME280_humidity;BME280_pressure;Samples;Min_cycle;Max_cycle;Signal;HPM_P1;HPM_P2
2021/05/03 00:00:38;;;;;;;8.17;5.47;;;;;;;;;;2113463;28;20174;-53
2021/05/03 00:01:38;;;;;;;7.37;5.10;;;;;;;;;;2114532;28;20643;-52
2021/05/03 00:02:39;;;;;;;6.53;5.67;;;;;;;;;;2110111;28;20249;-52
2021/05/03 00:03:39;;;;;;;5.97;5.03;;;;;;;;;;2112050;28;20252;-56
2021/05/03 00:04:39;;;;;;;5.70;5.20;;;;;;;;;;2110153;28;20214;-53
2021/05/03 00:05:45;;;;;;;5.97;4.90;;;;;;;;;;2112937;28;20179;-52
2021/05/03 00:06:46;;;;;;;5.80;5.30;;;;;;;;;;2108683;28;20210;-51
2021/05/03 00:07:46;;;;;;;5.60;5.10;;;;;;;;;;2113830;28;20181;-60
2021/05/03 00:08:46;;;;;;;6.43;5.77;;;;;;;;;;2109101;28;20601;-53
2021/05/03 00:09:46;;;;;;;5.63;5.17;;;;;;;;;;2114267;28;20178;-55
2021/05/03 00:10:47;;;;;;;6.97;5.60;;;;;;;;;;2113401;28;20166;-57
2021/05/03 00:11:47;;;;;;;5.50;5.10;;;;;;;;;;2114451;28;20174;-52
2021/05/03 00:12:47;;;;;;;5.97;5.47;;;;;;;;;;2108284;28;20677;-56
2021/05/03 00:13:48;;;;;;;7.03;5.77;;;;;;;;;;2108048;28;20673;-56
2021/05/03 00:14:49;;;;;;;5.73;5.23;;;;;;;;;;2105571;28;20590;-53
2021/05/03 00:15:50;;;;;;;5.40;4.97;;;;;;;;;;2101725;28;20644;-58
2021/05/03 00:16:50;;;;;;;6.40;5.80;;;;;;;;;;2113145;28;20212;-57
2021/05/03 00:17:50;;;;;;;5.87;5.33;;;;;;;;;;2112022;28;20198;-57
2021/05/03 00:18:50;;;;;;;5.70;5.20;;;;;;;;;;2103254;28;20178;-57
2021/05/03 00:19:51;;;;;;;7.33;5.73;;;;;;;;;;2117676;28;20180;-56
2021/05/03 00:20:51;;;;;;;8.37;5.90;;;;;;;;;;2113456;28;20170;-55
2021/05/03 00:21:51;;;;;;;6.13;5.60;;;;;;;;;;2112848;28;20231;-55
2021/05/03 00:22:52;;;;;;;5.97;5.37;;;;;;;;;;2106628;28;20167;-53
2021/05/03 00:23:52;;;;;;;8.00;5.73;;;;;;;;;;2113306;28;20161;-56
2021/05/03 00:24:52;;;;;;;7.07;6.27;;;;;;;;;;2103599;28;20186;-53
2021/05/03 00:25:52;;;;;;;5.90;5.40;;;;;;;;;;2098742;28;20209;-52
2021/05/03 00:26:53;;;;;;;6.00;5.37;;;;;;;;;;2114231;28;20161;-53
2021/05/03 00:27:53;;;;;;;6.23;5.73;;;;;;;;;;2107332;28;20198;-53
2021/05/03 00:28:53;;;;;;;6.57;5.83;;;;;;;;;;2114373;28;20734;-57
2021/05/03 00:29:53;;;;;;;5.97;5.43;;;;;;;;;;2114554;28;20182;-56
2021/05/03 00:30:54;;;;;;;6.53;5.60;;;;;;;;;;2112429;28;20185;-52
2021/05/03 00:31:54;;;;;;;5.77;5.27;;;;;;;;;;2114363;28;20181;-52
2021/05/03 00:32:54;;;;;;;6.97;5.80;;;;;;;;;;2102963;28;20189;-51
2021/05/03 00:33:54;;;;;;;6.80;6.07;;;;;;;;;;2100311;28;20547;-53
2021/05/03 00:34:55;;;;;;;6.03;5.50;;;;;;;;;;2112147;28;20313;-53
2021/05/03 00:35:55;;;;;;;7.47;6.00;;;;;;;;;;2114505;28;20201;-53
2021/05/03 00:36:55;;;;;;;5.43;5.03;;;;;;;;;;2114439;28;20162;-52
2021/05/03 00:37:55;;;;;;;6.23;5.37;;;;;;;;;;2108016;28;20194;-53
2021/05/03 00:38:56;;;;;;;6.63;5.90;;;;;;;;;;2104091;28;20179;-51
2021/05/03 00:39:56;;;;;;;6.80;6.07;;;;;;;;;;2105615;28;20575;-57
2021/05/03 00:40:57;;;;;;;6.47;5.87;;;;;;;;;;2109260;28;20531;-55
2021/05/03 00:41:57;;;;;;;6.57;6.00;;;;;;;;;;2108712;28;20197;-54
2021/05/03 00:42:57;;;;;;;5.53;5.13;;;;;;;;;;2108103;28;20186;-54
2021/05/03 00:43:58;;;;;;;6.17;5.57;;;;;;;;;;2114063;28;20184;-54
2021/05/03 00:45:04;;;;;;;7.50;5.93;;;;;;;;;;2113550;28;20189;-53
2021/05/03 00:46:04;;;;;;;6.03;5.47;;;;;;;;;;2114282;28;20165;-54
2021/05/03 00:47:05;;;;;;;6.87;6.27;;;;;;;;;;2114859;28;20260;-53
2021/05/03 00:48:05;;;;;;;7.57;5.83;;;;;;;;;;2112133;28;20193;-53
2021/05/03 00:49:06;;;;;;;6.40;5.87;;;;;;;;;;2115749;28;20235;-54
2021/05/03 00:50:09;;;;;;;6.73;6.23;;;;;;;;;;2113104;28;20186;-56
2021/05/03 00:51:09;;;;;;;6.67;5.97;;;;;;;;;;2106625;28;20178;-53
2021/05/03 00:52:11;;;;;;;6.50;6.00;;;;;;;;;;2106250;28;20759;-52
2021/05/03 00:53:11;;;;;;;6.73;5.47;;;;;;;;;;2105238;28;20258;-52
2021/05/03 00:54:12;;;;;;;6.17;5.67;;;;;;;;;;2106903;28;20170;-55
2021/05/03 00:55:13;;;;;;;6.30;5.70;;;;;;;;;;2115783;28;20288;-52
2021/05/03 00:56:13;;;;;;;8.43;6.97;;;;;;;;;;2112728;28;20196;-53
2021/05/03 00:57:13;;;;;;;6.20;5.57;;;;;;;;;;2107331;28;20174;-54
2021/05/03 00:58:13;;;;;;;7.47;5.80;;;;;;;;;;2110436;28;20181;-55
2021/05/03 00:59:14;;;;;;;7.07;6.37;;;;;;;;;;2115073;28;20594;-54
2021/05/03 01:00:14;;;;;;;6.97;6.07;;;;;;;;;;2115779;28;20256;-52
2021/05/03 01:01:15;;;;;;;7.57;5.90;;;;;;;;;;2115796;28;20173;-52
2021/05/03 01:02:15;;;;;;;6.77;5.33;;;;;;;;;;2113905;28;20234;-54
2021/05/03 01:03:15;;;;;;;6.37;5.77;;;;;;;;;;2112648;28;20256;-54
2021/05/03 01:04:16;;;;;;;6.10;5.67;;;;;;;;;;2115446;28;20181;-52
2021/05/03 01:05:17;;;;;;;9.03;5.73;;;;;;;;;;2115867;28;20166;-54
2021/05/03 01:06:18;;;;;;;6.37;5.50;;;;;;;;;;2115232;28;20174;-54
2021/05/03 01:07:18;;;;;;;8.37;6.07;;;;;;;;;;2114777;28;20186;-54
2021/05/03 01:08:19;;;;;;;5.73;5.20;;;;;;;;;;2112180;28;20174;-55
2021/05/03 01:09:19;;;;;;;8.67;6.00;;;;;;;;;;2111120;28;20686;-51
2021/05/03 01:10:19;;;;;;;6.10;5.60;;;;;;;;;;2115594;28;20592;-54
2021/05/03 01:11:20;;;;;;;7.00;6.13;;;;;;;;;;2115571;28;20201;-56
2021/05/03 01:12:20;;;;;;;6.73;6.23;;;;;;;;;;2105607;28;20178;-55
2021/05/03 01:13:20;;;;;;;6.77;6.17;;;;;;;;;;2106151;28;20666;-56
2021/05/03 01:14:20;;;;;;;6.43;5.93;;;;;;;;;;2115450;28;20165;-56
2021/05/03 01:15:24;;;;;;;6.47;5.87;;;;;;;;;;2111969;28;20212;-55
2021/05/03 01:16:24;;;;;;;6.57;5.97;;;;;;;;;;2114808;28;20169;-59
2021/05/03 01:17:35;;;;;;;5.80;5.20;;;;;;;;;;2099654;28;20191;-55
2021/05/03 01:18:37;;;;;;;9.03;6.13;;;;;;;;;;2103102;28;20166;-55
2021/05/03 01:19:37;;;;;;;6.13;5.67;;;;;;;;;;2110812;28;20169;-52
2021/05/03 01:20:38;;;;;;;6.40;5.63;;;;;;;;;;2113727;28;20252;-54
2021/05/03 01:21:38;;;;;;;7.83;6.10;;;;;;;;;;2105635;28;20654;-54
2021/05/03 01:22:38;;;;;;;6.23;5.70;;;;;;;;;;2106361;28;20154;-53
2021/05/03 01:23:39;;;;;;;6.53;6.03;;;;;;;;;;2109271;28;20567;-54
2021/05/03 01:24:39;;;;;;;5.83;5.33;;;;;;;;;;2115928;28;20234;-53
2021/05/03 01:25:41;;;;;;;6.40;5.80;;;;;;;;;;2106196;28;20185;-55
2021/05/03 01:26:42;;;;;;;7.30;5.67;;;;;;;;;;2102376;28;20761;-54
2021/05/03 01:27:42;;;;;;;7.73;5.73;;;;;;;;;;2099469;28;20237;-54
2021/05/03 01:28:43;;;;;;;6.40;5.67;;;;;;;;;;2106296;28;20219;-54
2021/05/03 01:29:43;;;;;;;7.20;6.00;;;;;;;;;;2110539;28;20178;-56
2021/05/03 01:30:44;;;;;;;8.30;6.93;;;;;;;;;;2118726;28;20162;-55
2021/05/03 01:31:49;;;;;;;6.40;5.80;;;;;;;;;;2119407;28;20230;-56
2021/05/03 01:32:49;;;;;;;6.87;6.27;;;;;;;;;;2117112;28;20176;-54
2021/05/03 01:33:49;;;;;;;6.47;5.83;;;;;;;;;;2106008;28;20182;-56
2021/05/03 01:34:49;;;;;;;10.50;6.07;;;;;;;;;;2114412;28;20193;-56
2021/05/03 01:35:50;;;;;;;6.83;6.23;;;;;;;;;;2116179;28;20221;-55
2021/05/03 01:36:50;;;;;;;9.13;5.60;;;;;;;;;;2113864;28;20659;-51
2021/05/03 01:37:51;;;;;;;8.83;6.00;;;;;;;;;;2109850;28;20546;-58
2021/05/03 01:38:52;;;;;;;13.13;6.00;;;;;;;;;;2119889;28;20250;-55
2021/05/03 01:39:52;;;;;;;6.13;5.53;;;;;;;;;;2113284;28;20170;-58
2021/05/03 01:40:52;;;;;;;7.50;5.73;;;;;;;;;;2103713;28;20242;-60
2021/05/03 01:41:53;;;;;;;6.40;5.90;;;;;;;;;;2107690;28;20634;-56
2021/05/03 01:42:53;;;;;;;6.20;5.70;;;;;;;;;;2104337;28;20198;-53
2021/05/03 01:43:53;;;;;;;7.47;6.37;;;;;;;;;;2115792;28;20382;-52
2021/05/03 01:45:00;;;;;;;6.17;5.67;;;;;;;;;;2112017;28;20193;-55
2021/05/03 01:46:01;;;;;;;6.57;5.97;;;;;;;;;;2109452;28;20177;-56
2021/05/03 01:47:02;;;;;;;6.23;5.23;;;;;;;;;;2115953;28;20204;-57
2021/05/03 01:48:02;;;;;;;7.23;5.40;;;;;;;;;;2118819;28;20201;-57
2021/05/03 01:49:04;;;;;;;7.83;6.27;;;;;;;;;;2115107;28;20170;-56
2021/05/03 01:50:05;;;;;;;6.80;6.20;;;;;;;;;;2117189;28;20561;-56
2021/05/03 01:51:06;;;;;;;6.47;5.77;;;;;;;;;;2114311;28;20182;-55
2021/05/03 01:52:06;;;;;;;6.77;6.07;;;;;;;;;;2118268;28;20260;-53
2021/05/03 01:53:07;;;;;;;8.63;5.50;;;;;;;;;;2110969;28;20174;-55
2021/05/03 01:54:07;;;;;;;6.03;5.43;;;;;;;;;;2115578;28;20230;-52
2021/05/03 01:55:08;;;;;;;7.83;6.10;;;;;;;;;;2113344;28;20201;-52
2021/05/03 01:56:08;;;;;;;6.57;5.97;;;;;;;;;;2112952;28;20356;-56
2021/05/03 01:57:08;;;;;;;9.00;6.30;;;;;;;;;;2104219;28;20182;-52
2021/05/03 01:58:09;;;;;;;6.70;6.07;;;;;;;;;;2106477;28;20178;-55
2021/05/03 01:59:09;;;;;;;7.17;5.70;;;;;;;;;;2105385;28;20201;-52
2021/05/03 02:00:10;;;;;;;10.63;6.00;;;;;;;;;;2105689;28;20569;-55
2021/05/03 02:01:10;;;;;;;6.63;5.53;;;;;;;;;;2107718;28;20202;-51
2021/05/03 02:02:10;;;;;;;6.97;6.23;;;;;;;;;;2109119;28;20184;-56
2021/05/03 02:03:21;;;;;;;7.43;6.40;;;;;;;;;;2115423;28;20176;-52
2021/05/03 02:04:21;;;;;;;9.13;5.93;;;;;;;;;;2113498;28;20181;-52
2021/05/03 02:05:25;;;;;;;6.93;6.33;;;;;;;;;;2115661;28;20181;-54
2021/05/03 02:06:25;;;;;;;6.50;6.00;;;;;;;;;;2114109;28;20181;-53
2021/05/03 02:07:25;;;;;;;7.10;6.20;;;;;;;;;;2113395;28;20198;-52
2021/05/03 02:08:25;;;;;;;7.07;6.37;;;;;;;;;;2111353;28;20182;-55
2021/05/03 02:09:26;;;;;;;6.10;5.47;;;;;;;;;;2112282;28;20162;-53
2021/05/03 02:10:27;;;;;;;6.27;5.63;;;;;;;;;;2109924;28;20178;-53
2021/05/03 02:11:27;;;;;;;11.17;6.37;;;;;;;;;;2111848;28;20158;-52
2021/05/03 02:12:27;;;;;;;6.47;5.77;;;;;;;;;;2108218;28;20202;-53
2021/05/03 02:13:28;;;;;;;7.43;6.17;;;;;;;;;;2108979;28;20231;-55
2021/05/03 02:14:29;;;;;;;7.33;5.63;;;;;;;;;;2106717;28;20261;-52
2021/05/03 02:15:29;;;;;;;7.77;6.77;;;;;;;;;;2112594;28;20577;-54
2021/05/03 02:16:30;;;;;;;6.37;5.77;;;;;;;;;;2114258;28;20177;-55
2021/05/03 02:17:30;;;;;;;6.73;6.13;;;;;;;;;;2113885;28;20199;-56
2021/05/03 02:18:30;;;;;;;7.17;6.50;;;;;;;;;;2115260;28;20166;-52
2021/05/03 02:19:31;;;;;;;5.93;5.43;;;;;;;;;;2105985;28;20735;-54
2021/05/03 02:20:32;;;;;;;6.53;5.87;;;;;;;;;;2105869;28;20217;-55
2021/05/03 02:21:32;;;;;;;7.40;6.27;;;;;;;;;;2097939;28;20704;-53
2021/05/03 02:22:33;;;;;;;6.37;5.60;;;;;;;;;;2113499;28;20165;-55
2021/05/03 02:23:33;;;;;;;6.30;5.70;;;;;;;;;;2114564;28;20648;-54
2021/05/03 02:24:33;;;;;;;9.27;5.83;;;;;;;;;;2104642;28;20823;-54
2021/05/03 02:25:33;;;;;;;6.87;6.23;;;;;;;;;;2097528;28;20861;-50
2021/05/03 02:26:34;;;;;;;5.83;5.17;;;;;;;;;;2105656;28;20191;-57
2021/05/03 02:27:34;;;;;;;7.60;6.33;;;;;;;;;;2113415;28;20269;-52
2021/05/03 02:28:35;;;;;;;7.17;6.53;;;;;;;;;;2114890;28;20553;-53
2021/05/03 02:29:35;;;;;;;5.90;5.40;;;;;;;;;;2113899;28;20169;-54
2021/05/03 02:30:35;;;;;;;6.77;6.07;;;;;;;;;;2114720;28;20686;-53
2021/05/03 02:31:35;;;;;;;6.53;5.70;;;;;;;;;;2113310;28;20641;-54
2021/05/03 02:32:36;;;;;;;6.53;5.70;;;;;;;;;;2111784;28;20189;-52
2021/05/03 02:33:37;;;;;;;6.97;6.40;;;;;;;;;;2112464;28;20257;-60
2021/05/03 02:34:37;;;;;;;6.87;6.27;;;;;;;;;;2112140;28;20193;-56
2021/05/03 02:35:37;;;;;;;6.77;6.17;;;;;;;;;;2113326;28;20735;-55
2021/05/03 02:36:38;;;;;;;6.67;6.07;;;;;;;;;;2111565;28;20205;-56
2021/05/03 02:37:38;;;;;;;6.87;5.70;;;;;;;;;;2112314;28;20572;-55
2021/05/03 02:38:39;;;;;;;7.10;5.63;;;;;;;;;;2115105;28;20703;-57
2021/05/03 02:39:42;;;;;;;6.23;5.73;;;;;;;;;;2107427;28;20186;-55
2021/05/03 02:40:42;;;;;;;7.30;6.17;;;;;;;;;;2101190;28;20189;-53
2021/05/03 02:41:42;;;;;;;6.57;5.97;;;;;;;;;;2100907;28;20202;-54
2021/05/03 02:42:53;;;;;;;7.00;6.13;;;;;;;;;;2113897;28;20174;-53
2021/05/03 02:43:53;;;;;;;6.70;6.00;;;;;;;;;;2105813;28;20170;-53
2021/05/03 02:44:53;;;;;;;8.27;6.30;;;;;;;;;;2106095;28;20193;-56
2021/05/03 02:45:53;;;;;;;6.73;5.80;;;;;;;;;;2105395;28;20185;-55
2021/05/03 02:46:54;;;;;;;7.43;5.40;;;;;;;;;;2106995;28;20193;-53
2021/05/03 02:47:54;;;;;;;7.00;6.40;;;;;;;;;;2114191;28;20197;-55
2021/05/03 02:48:54;;;;;;;6.67;5.97;;;;;;;;;;2113982;28;20257;-55
2021/05/03 02:49:55;;;;;;;6.87;6.17;;;;;;;;;;2109512;28;20281;-55
2021/05/03 02:50:55;;;;;;;6.83;6.23;;;;;;;;;;2114336;28;20193;-52
2021/05/03 02:51:55;;;;;;;8.47;5.93;;;;;;;;;;2113473;28;20268;-55
2021/05/03 02:52:56;;;;;;;8.37;6.30;;;;;;;;;;2114759;28;20201;-52
2021/05/03 02:53:56;;;;;;;6.47;5.87;;;;;;;;;;2112314;28;20173;-52
2021/05/03 02:54:56;;;;;;;10.40;6.63;;;;;;;;;;2109517;28;20209;-54
2021/05/03 02:55:56;;;;;;;6.50;5.83;;;;;;;;;;2114643;28;20173;-54
2021/05/03 02:56:57;;;;;;;6.20;5.70;;;;;;;;;;2113760;28;20182;-54
2021/05/03 02:57:58;;;;;;;6.33;5.73;;;;;;;;;;2114620;28;20200;-52
2021/05/03 02:58:58;;;;;;;6.77;6.13;;;;;;;;;;2104593;28;20173;-55
2021/05/03 02:59:59;;;;;;;6.47;5.83;;;;;;;;;;2105414;28;20212;-54
2021/05/03 03:00:59;;;;;;;7.40;6.70;;;;;;;;;;2109853;28;20166;-51
2021/05/03 03:01:59;;;;;;;6.57;5.97;;;;;;;;;;2104713;28;20178;-51
2021/05/03 03:03:00;;;;;;;6.13;5.63;;;;;;;;;;2104249;28;20183;-54
2021/05/03 03:04:00;;;;;;;6.80;6.20;;;;;;;;;;2113141;28;20184;-51
2021/05/03 03:05:01;;;;;;;7.80;6.03;;;;;;;;;;2113823;28;20242;-52
2021/05/03 03:06:01;;;;;;;7.77;6.70;;;;;;;;;;2112624;28;20200;-53
2021/05/03 03:07:01;;;;;;;7.20;6.23;;;;;;;;;;2106727;28;20634;-54
2021/05/03 03:08:02;;;;;;;6.90;6.30;;;;;;;;;;2107403;28;20187;-53
2021/05/03 03:09:03;;;;;;;7.50;6.70;;;;;;;;;;2114355;28;20176;-53
2021/05/03 03:10:04;;;;;;;7.57;6.87;;;;;;;;;;2114521;28;20223;-54
2021/05/03 03:11:04;;;;;;;6.70;6.10;;;;;;;;;;2113483;28;20173;-55
2021/05/03 03:12:06;;;;;;;7.07;6.37;;;;;;;;;;2112502;28;20653;-56
2021/05/03 03:13:06;;;;;;;6.90;6.20;;;;;;;;;;2097267;28;20342;-50
2021/05/03 03:14:06;;;;;;;7.57;6.70;;;;;;;;;;2097428;28;20285;-53
2021/05/03 03:15:10;;;;;;;7.37;6.53;;;;;;;;;;2106098;28;20194;-53
2021/05/03 03:16:11;;;;;;;7.77;6.83;;;;;;;;;;2106624;28;20223;-52
2021/05/03 03:17:11;;;;;;;7.80;7.00;;;;;;;;;;2090318;28;20171;-54
2021/05/03 03:18:11;;;;;;;8.37;6.07;;;;;;;;;;2089302;28;20206;-56
2021/05/03 03:19:11;;;;;;;7.17;6.57;;;;;;;;;;2106257;28;20183;-57
2021/05/03 03:20:12;;;;;;;8.50;6.27;;;;;;;;;;2106464;28;20174;-55
2021/05/03 03:21:12;;;;;;;7.37;6.67;;;;;;;;;;2106176;28;20174;-54
2021/05/03 03:22:13;;;;;;;8.47;7.20;;;;;;;;;;2106301;28;20205;-51
2021/05/03 03:23:13;;;;;;;7.57;6.27;;;;;;;;;;2106770;28;20194;-54
2021/05/03 03:24:13;;;;;;;7.90;6.67;;;;;;;;;;2097654;28;20447;-52
2021/05/03 03:25:14;;;;;;;7.60;6.77;;;;;;;;;;2097107;28;20600;-55
2021/05/03 03:26:14;;;;;;;7.43;6.77;;;;;;;;;;2106340;28;20210;-54
2021/05/03 03:27:15;;;;;;;7.30;6.57;;;;;;;;;;2099892;28;20228;-51
2021/05/03 03:28:15;;;;;;;7.63;6.80;;;;;;;;;;2097495;28;20202;-54
2021/05/03 03:29:15;;;;;;;7.00;6.27;;;;;;;;;;2105516;28;20648;-57
2021/05/03 03:30:16;;;;;;;7.30;6.70;;;;;;;;;;2105723;28;20673;-52
2021/05/03 03:31:16;;;;;;;7.40;6.57;;;;;;;;;;2105763;28;20180;-54
2021/05/03 03:32:17;;;;;;;10.20;7.07;;;;;;;;;;2111261;28;20584;-54
2021/05/03 03:33:17;;;;;;;6.87;6.17;;;;;;;;;;2097893;28;20617;-55
2021/05/03 03:34:17;;;;;;;8.47;7.10;;;;;;;;;;2105509;28;20227;-53
2021/05/03 03:35:18;;;;;;;7.73;6.93;;;;;;;;;;2110612;28;20197;-55
2021/05/03 03:36:18;;;;;;;9.07;6.93;;;;;;;;;;2113856;28;20173;-55
2021/05/03 03:37:19;;;;;;;9.57;7.17;;;;;;;;;;2112617;28;20237;-58
2021/05/03 03:38:19;;;;;;;7.37;6.67;;;;;;;;;;2112023;28;20178;-56
2021/05/03 03:39:19;;;;;;;8.27;6.23;;;;;;;;;;2106248;28;20205;-53
2021/05/03 03:40:20;;;;;;;6.73;6.03;;;;;;;;;;2105194;28;20182;-54
2021/05/03 03:41:20;;;;;;;7.10;6.40;;;;;;;;;;2108380;28;20166;-55
2021/05/03 03:42:20;;;;;;;7.87;6.73;;;;;;;;;;2118691;28;20223;-57
2021/05/03 03:43:20;;;;;;;7.60;6.87;;;;;;;;;;2109772;28;20220;-52
2021/05/03 03:44:21;;;;;;;8.23;7.43;;;;;;;;;;2104942;28;20189;-53
2021/05/03 03:45:21;;;;;;;7.13;6.33;;;;;;;;;;2098682;28;20190;-53
2021/05/03 03:46:21;;;;;;;7.40;6.80;;;;;;;;;;2103208;28;20231;-55
2021/05/03 03:47:21;;;;;;;7.87;6.60;;;;;;;;;;2110957;28;20223;-53
2021/05/03 03:48:22;;;;;;;8.03;7.17;;;;;;;;;;2108636;28;20213;-53
2021/05/03 03:49:22;;;;;;;8.70;7.53;;;;;;;;;;2106417;28;20166;-55
2021/05/03 03:50:22;;;;;;;9.23;7.30;;;;;;;;;;2105645;28;20591;-52
2021/05/03 03:51:22;;;;;;;7.23;6.50;;;;;;;;;;2106074;28;20182;-52
2021/05/03 03:52:24;;;;;;;7.37;6.63;;;;;;;;;;2113145;28;20252;-53
2021/05/03 03:53:24;;;;;;;8.37;7.00;;;;;;;;;;2111234;28;20182;-53
2021/05/03 03:54:24;;;;;;;7.20;6.47;;;;;;;;;;2109734;28;20226;-53
2021/05/03 03:55:25;;;;;;;8.17;6.23;;;;;;;;;;2106276;28;20166;-53
2021/05/03 03:56:27;;;;;;;7.63;6.83;;;;;;;;;;2105401;28;20201;-54
2021/05/03 03:57:29;;;;;;;8.50;7.60;;;;;;;;;;2110211;28;20223;-52
2021/05/03 03:58:29;;;;;;;7.20;6.60;;;;;;;;;;2113243;28;20234;-54
2021/05/03 03:59:32;;;;;;;7.60;6.93;;;;;;;;;;2097264;28;20217;-53
2021/05/03 04:00:33;;;;;;;7.57;6.63;;;;;;;;;;2099960;28;20174;-54
2021/05/03 04:01:34;;;;;;;7.50;6.83;;;;;;;;;;2113878;28;20260;-53
2021/05/03 04:02:35;;;;;;;7.90;7.03;;;;;;;;;;2112452;28;20264;-56
2021/05/03 04:03:38;;;;;;;8.27;7.47;;;;;;;;;;2112547;28;20170;-55
2021/05/03 04:04:42;;;;;;;9.03;7.63;;;;;;;;;;2113787;28;20176;-54
2021/05/03 04:07:14;;;;;;;8.13;6.97;;;;;;;;;;2106187;28;20695;-57
2021/05/03 04:08:22;;;;;;;9.00;6.80;;;;;;;;;;2114247;28;20185;-50
2021/05/03 04:09:31;;;;;;;9.63;7.40;;;;;;;;;;2111881;28;20634;-55
2021/05/03 04:10:43;;;;;;;8.33;7.60;;;;;;;;;;2113728;28;20170;-55
2021/05/03 04:13:18;;;;;;;7.90;7.07;;;;;;;;;;2102764;28;20552;-56
2021/05/03 04:22:29;;;;;;;8.57;7.63;;;;;;;;;;2115217;28;20629;-54
2021/05/03 04:24:54;;;;;;;7.93;7.23;;;;;;;;;;2113850;28;20173;-57
2021/05/03 04:25:54;;;;;;;7.77;6.77;;;;;;;;;;2109045;28;20190;-56
2021/05/03 04:26:54;;;;;;;8.10;7.33;;;;;;;;;;2116021;28;20534;-52
2021/05/03 04:27:55;;;;;;;7.93;6.87;;;;;;;;;;2114342;28;20529;-55
2021/05/03 04:29:56;;;;;;;7.57;6.83;;;;;;;;;;2127401;22;20245;-57
2021/05/03 04:30:56;;;;;;;8.77;7.87;;;;;;;;;;2102485;28;20278;-57
2021/05/03 04:31:56;;;;;;;8.70;7.80;;;;;;;;;;2102742;28;20646;-58
2021/05/03 04:32:57;;;;;;;8.80;7.97;;;;;;;;;;2108254;28;20204;-60
2021/05/03 04:33:57;;;;;;;8.70;7.83;;;;;;;;;;2113653;28;20552;-57
2021/05/03 04:34:57;;;;;;;8.13;7.33;;;;;;;;;;2115701;28;20205;-57
2021/05/03 04:35:59;;;;;;;8.07;7.33;;;;;;;;;;2114188;28;20551;-57
2021/05/03 04:36:59;;;;;;;9.37;8.47;;;;;;;;;;2114988;28;20181;-58
2021/05/03 04:37:59;;;;;;;9.47;8.57;;;;;;;;;;2106323;28;20192;-57
2021/05/03 04:39:00;;;;;;;13.30;8.57;;;;;;;;;;2106326;28;20239;-55
2021/05/03 04:40:00;;;;;;;9.27;8.20;;;;;;;;;;2113847;28;20208;-57
2021/05/03 04:41:00;;;;;;;9.13;8.23;;;;;;;;;;2107068;28;20198;-59
2021/05/03 04:42:00;;;;;;;9.47;7.83;;;;;;;;;;2111337;28;20188;-59
2021/05/03 04:43:01;;;;;;;8.90;7.53;;;;;;;;;;2109718;28;20171;-58
2021/05/03 04:44:01;;;;;;;7.70;7.03;;;;;;;;;;2115613;28;20642;-59
2021/05/03 04:45:01;;;;;;;8.73;7.63;;;;;;;;;;2105513;28;20620;-59
2021/05/03 04:46:02;;;;;;;10.90;8.33;;;;;;;;;;2100197;28;20292;-53
2021/05/03 04:47:02;;;;;;;8.67;7.77;;;;;;;;;;2115827;28;20177;-59
2021/05/03 04:48:03;;;;;;;9.53;8.53;;;;;;;;;;2114272;28;20204;-58
2021/05/03 04:49:03;;;;;;;8.63;7.77;;;;;;;;;;2115029;28;20201;-56
2021/05/03 04:50:05;;;;;;;8.57;7.87;;;;;;;;;;2115707;28;20178;-57
2021/05/03 04:51:05;;;;;;;9.20;8.30;;;;;;;;;;2114442;28;20166;-58
2021/05/03 04:52:06;;;;;;;8.37;7.53;;;;;;;;;;2106835;28;20609;-54
2021/05/03 04:53:06;;;;;;;9.40;8.30;;;;;;;;;;2106037;28;20174;-56
2021/05/03 04:54:06;;;;;;;10.13;8.50;;;;;;;;;;2106612;28;20174;-52
2021/05/03 04:55:07;;;;;;;8.83;7.93;;;;;;;;;;2112068;28;20206;-55
2021/05/03 04:56:08;;;;;;;9.17;8.27;;;;;;;;;;2114434;28;20293;-56
2021/05/03 04:57:08;;;;;;;10.77;8.43;;;;;;;;;;2114318;28;20257;-59
2021/05/03 04:58:08;;;;;;;9.97;8.03;;;;;;;;;;2115356;28;20283;-55
2021/05/03 04:59:08;;;;;;;14.20;8.33;;;;;;;;;;2114541;28;21395;-57
2021/05/03 05:00:09;;;;;;;8.17;7.50;;;;;;;;;;2104560;28;20178;-57
2021/05/03 05:01:09;;;;;;;8.73;7.83;;;;;;;;;;2104119;28;20191;-59
2021/05/03 05:02:10;;;;;;;8.90;8.03;;;;;;;;;;2105012;28;20254;-58
2021/05/03 05:03:10;;;;;;;8.93;8.10;;;;;;;;;;2105029;28;20167;-59
2021/05/03 05:04:10;;;;;;;8.33;7.33;;;;;;;;;;2108831;28;20667;-59
2021/05/03 05:05:12;;;;;;;8.07;7.27;;;;;;;;;;2105923;28;20259;-58
2021/05/03 05:06:12;;;;;;;9.47;8.67;;;;;;;;;;2103818;28;20182;-59
2021/05/03 05:07:12;;;;;;;10.93;8.77;;;;;;;;;;2108820;28;20265;-57
2021/05/03 05:08:13;;;;;;;8.00;7.30;;;;;;;;;;2101570;28;20170;-57
2021/05/03 05:09:13;;;;;;;9.20;8.10;;;;;;;;;;2105299;28;20632;-54
2021/05/03 05:10:13;;;;;;;8.63;7.83;;;;;;;;;;2100817;28;20787;-56
2021/05/03 05:11:14;;;;;;;7.97;7.20;;;;;;;;;;2104326;28;20170;-59
2021/05/03 05:12:14;;;;;;;9.03;7.60;;;;;;;;;;2107603;28;20185;-58
2021/05/03 05:13:14;;;;;;;8.53;7.73;;;;;;;;;;2108815;28;20185;-55
2021/05/03 05:14:15;;;;;;;8.80;7.90;;;;;;;;;;2110230;28;20197;-56
2021/05/03 05:15:15;;;;;;;8.80;7.87;;;;;;;;;;2106470;28;20282;-60
2021/05/03 05:16:15;;;;;;;8.00;7.30;;;;;;;;;;2098044;28;20197;-56
2021/05/03 05:17:16;;;;;;;9.63;8.63;;;;;;;;;;2105853;28;20178;-56
2021/05/03 05:18:16;;;;;;;9.13;8.23;;;;;;;;;;2110973;28;20162;-56
2021/05/03 05:19:17;;;;;;;8.87;7.97;;;;;;;;;;2114542;28;20677;-56
2021/05/03 05:20:17;;;;;;;8.67;7.77;;;;;;;;;;2111109;28;20170;-55
2021/05/03 05:21:17;;;;;;;8.33;7.40;;;;;;;;;;2113768;28;20172;-56
2021/05/03 05:22:18;;;;;;;8.73;7.60;;;;;;;;;;2102138;28;20316;-58
2021/05/03 05:23:18;;;;;;;8.10;7.27;;;;;;;;;;2101771;28;20214;-58
2021/05/03 05:24:18;;;;;;;8.53;7.77;;;;;;;;;;2111706;28;20173;-58
2021/05/03 05:25:18;;;;;;;9.47;8.50;;;;;;;;;;2109207;28;20858;-55
2021/05/03 05:26:19;;;;;;;9.63;8.07;;;;;;;;;;2109737;28;20242;-56
2021/05/03 05:27:19;;;;;;;10.87;8.27;;;;;;;;;;2101764;28;20186;-56
2021/05/03 05:28:19;;;;;;;9.27;8.47;;;;;;;;;;2104738;28;20219;-56
2021/05/03 05:29:24;;;;;;;8.40;7.60;;;;;;;;;;2110695;28;20208;-56
2021/05/03 05:30:24;;;;;;;7.60;6.90;;;;;;;;;;2113867;28;20177;-57
2021/05/03 05:31:24;;;;;;;10.03;7.83;;;;;;;;;;2115573;28;20216;-57
2021/05/03 05:32:25;;;;;;;7.73;7.03;;;;;;;;;;2114733;28;20256;-54
2021/05/03 05:33:25;;;;;;;9.67;8.33;;;;;;;;;;2114786;28;20230;-56
2021/05/03 05:34:25;;;;;;;8.50;7.53;;;;;;;;;;2112925;28;20654;-58
2021/05/03 05:35:25;;;;;;;8.43;7.53;;;;;;;;;;2111633;28;20647;-58
2021/05/03 05:36:26;;;;;;;11.63;7.90;;;;;;;;;;2105987;28;20551;-56
2021/05/03 05:37:26;;;;;;;10.57;7.90;;;;;;;;;;2097479;28;20178;-61
2021/05/03 05:38:26;;;;;;;9.27;7.80;;;;;;;;;;2103506;28;20190;-55
2021/05/03 05:39:26;;;;;;;8.87;7.77;;;;;;;;;;2102759;28;20795;-56
2021/05/03 05:40:27;;;;;;;8.77;7.87;;;;;;;;;;2082711;28;20167;-57
2021/05/03 05:41:27;;;;;;;8.97;7.63;;;;;;;;;;2096503;28;20258;-57
2021/05/03 05:42:27;;;;;;;8.97;8.07;;;;;;;;;;2109760;28;20239;-56
2021/05/03 05:43:27;;;;;;;9.77;8.40;;;;;;;;;;2110977;28;20162;-56
2021/05/03 05:44:28;;;;;;;9.03;8.13;;;;;;;;;;2114115;28;20193;-58
2021/05/03 05:45:28;;;;;;;7.43;6.73;;;;;;;;;;2114699;28;20179;-56
2021/05/03 05:46:28;;;;;;;7.83;7.07;;;;;;;;;;2114903;28;20553;-53
2021/05/03 05:47:28;;;;;;;8.07;7.27;;;;;;;;;;2113844;28;20185;-55
2021/05/03 05:48:29;;;;;;;8.73;7.30;;;;;;;;;;2114913;28;20194;-55
2021/05/03 05:49:29;;;;;;;9.27;6.83;;;;;;;;;;2115732;28;20185;-57
2021/05/03 05:50:29;;;;;;;7.13;6.43;;;;;;;;;;2116203;28;20165;-56
2021/05/03 05:51:30;;;;;;;7.97;6.87;;;;;;;;;;2116125;28;20713;-56
2021/05/03 05:52:30;;;;;;;8.23;7.43;;;;;;;;;;2109070;28;20239;-55
2021/05/03 05:53:31;;;;;;;8.10;7.30;;;;;;;;;;2113682;28;20793;-57
2021/05/03 05:54:32;;;;;;;9.97;6.80;;;;;;;;;;2112153;28;20162;-54
2021/05/03 05:55:32;;;;;;;8.77;7.43;;;;;;;;;;2112518;28;20170;-56
2021/05/03 05:56:32;;;;;;;7.27;6.57;;;;;;;;;;2113134;28;20239;-55
2021/05/03 05:57:32;;;;;;;7.00;6.30;;;;;;;;;;2105349;28;20686;-57
2021/05/03 05:58:33;;;;;;;7.63;6.77;;;;;;;;;;2106097;28;20174;-55
2021/05/03 05:59:33;;;;;;;7.13;6.53;;;;;;;;;;2113360;28;20189;-55
2021/05/03 06:00:34;;;;;;;7.07;6.47;;;;;;;;;;2113036;28;20167;-58
2021/05/03 06:01:34;;;;;;;9.23;7.10;;;;;;;;;;2111205;28;20211;-59
2021/05/03 06:02:34;;;;;;;7.87;7.17;;;;;;;;;;2107816;28;20204;-61
2021/05/03 06:03:34;;;;;;;10.07;7.07;;;;;;;;;;2111046;28;20776;-56
2021/05/03 06:04:38;;;;;;;7.53;6.80;;;;;;;;;;2111510;28;20708;-53
2021/05/03 06:05:38;;;;;;;8.23;7.50;;;;;;;;;;2114275;28;20596;-57
2021/05/03 06:06:38;;;;;;;7.67;6.43;;;;;;;;;;2114121;28;20169;-57
2021/05/03 06:07:38;;;;;;;6.70;6.20;;;;;;;;;;2113311;28;20186;-57
2021/05/03 06:08:39;;;;;;;8.60;6.60;;;;;;;;;;2105216;28;20165;-57
2021/05/03 06:09:39;;;;;;;7.30;6.63;;;;;;;;;;2100501;28;20300;-57
2021/05/03 06:10:39;;;;;;;7.00;6.33;;;;;;;;;;2111060;28;20261;-56
2021/05/03 06:11:40;;;;;;;7.27;6.57;;;;;;;;;;2110036;28;20661;-57
2021/05/03 06:12:40;;;;;;;8.03;7.27;;;;;;;;;;2112316;28;20165;-56
2021/05/03 06:13:40;;;;;;;6.43;5.93;;;;;;;;;;2100768;28;20263;-57
2021/05/03 06:14:41;;;;;;;8.53;6.50;;;;;;;;;;2101679;28;20559;-57
2021/05/03 06:15:41;;;;;;;6.80;6.20;;;;;;;;;;2106471;28;20178;-58
2021/05/03 06:16:41;;;;;;;6.63;5.90;;;;;;;;;;2106800;28;20162;-57
2021/05/03 06:17:42;;;;;;;9.17;6.47;;;;;;;;;;2102711;28;20626;-56